Time;durP1;ratioP1;P1;durP2;ratioP2;P2;SDS_P1;SDS_P2;PMS_P1;PMS_P2;Temp;Humidity;BMP_temperature;BMP_pressure;BME280_temperature;BME280_humidity;BME280_pressure;Samples;Min_cycle;Max_cycle;Signal;HPM_P1;HPM_P2
2022/12/06 00:00:54;;;;;;;5.7;3.9;;;;;;;2;95.71582;938.7805;;;;
2022/12/06 00:03:19;;;;;;;5.8;4.1;;;;;;;1.91;96.03125;938.7462;;;;
2022/12/06 00:05:47;;;;;;;5;3.6;;;;;;;1.91;95.53027;938.7322;;;;
2022/12/06 00:08:18;;;;;;;5.8;4.2;;;;;;;1.91;95.3291;938.8547;;;;
2022/12/06 00:10:49;;;;;;;5.8;4.3;;;;;;;1.89;95.67188;938.835;;;;
2022/12/06 00:13:39;;;;;;;7.7;4.8;;;;;;;1.88;95.50879;938.8265;;;;
2022/12/06 00:16:17;;;;;;;6.6;4.7;;;;;;;1.89;95.40039;938.7972;;;;
2022/12/06 00:18:55;;;;;;;15.5;8.1;;;;;;;1.75;96.02832;938.9196;;;;
2022/12/06 00:21:33;;;;;;;8.3;5.5;;;;;;;1.61;96.60156;938.8477;;;;
2022/12/06 00:24:11;;;;;;;8.1;5.1;;;;;;;1.46;97.4043;938.8987;;;;
2022/12/06 00:26:49;;;;;;;9;5.8;;;;;;;1.37;98.19043;938.8917;;;;
2022/12/06 00:29:27;;;;;;;9.6;6;;;;;;;1.29;98.65039;938.8903;;;;
2022/12/06 00:32:04;;;;;;;8.4;5.6;;;;;;;1.15;99.09668;938.9297;;;;
2022/12/06 00:34:42;;;;;;;6.3;5.1;;;;;;;1.15;99.40918;938.8922;;;;
2022/12/06 00:37:20;;;;;;;7.5;5.3;;;;;;;1.08;99.76367;938.8947;;;;
2022/12/06 00:39:57;;;;;;;6.6;4.7;;;;;;;1.11;99.72461;938.8292;;;;
2022/12/06 00:42:35;;;;;;;7.8;5.3;;;;;;;1.14;99.49707;938.9387;;;;
2022/12/06 00:45:13;;;;;;;6.5;5.4;;;;;;;1.21;98.65527;938.9324;;;;
2022/12/06 00:47:52;;;;;;;8;5.2;;;;;;;1.29;97.89258;938.9587;;;;
2022/12/06 00:50:29;;;;;;;7.5;5.2;;;;;;;1.26;97.88379;938.9656;;;;
2022/12/06 00:53:07;;;;;;;6.7;4.7;;;;;;;1.25;98.10547;939.0485;;;;
2022/12/06 00:55:45;;;;;;;5.9;4.6;;;;;;;1.15;98.67676;939.0219;;;;
2022/12/06 00:58:23;;;;;;;5.7;4.4;;;;;;;1.21;99.02246;938.9344;;;;
2022/12/06 01:01:01;;;;;;;7.6;4.9;;;;;;;1.15;98.90039;938.8008;;;;
2022/12/06 01:03:40;;;;;;;7.9;4.9;;;;;;;1.25;98.83008;938.78;;;;
2022/12/06 01:06:29;;;;;;;6.7;4.9;;;;;;;1.34;98.08203;938.7982;;;;
2022/12/06 01:09:07;;;;;;;7.2;4.4;;;;;;;1.33;97.77832;938.7955;;;;
2022/12/06 01:11:44;;;;;;;6.1;4.2;;;;;;;1.26;97.95117;938.7791;;;;
2022/12/06 01:14:22;;;;;;;5.4;4.2;;;;;;;1.2;98.85254;938.7863;;;;
2022/12/06 01:16:47;;;;;;;6.2;4.6;;;;;;;1.26;98.90137;938.8113;;;;
2022/12/06 01:19:25;;;;;;;5.4;4.3;;;;;;;1.27;98.34473;938.7366;;;;
2022/12/06 01:22:03;;;;;;;5.9;4.5;;;;;;;1.24;98.26855;938.7883;;;;
2022/12/06 01:24:40;;;;;;;6.1;4.5;;;;;;;1.25;98.27344;938.8267;;;;
2022/12/06 01:27:18;;;;;;;7.1;4.9;;;;;;;1.28;97.99121;938.8694;;;;
2022/12/06 01:29:56;;;;;;;5.2;3.7;;;;;;;1.27;98.05176;938.8876;;;;
2022/12/06 01:32:33;;;;;;;5.2;3.3;;;;;;;1.23;97.93359;938.9252;;;;
2022/12/06 01:35:11;;;;;;;5.2;3.1;;;;;;;1.21;97.61426;938.9431;;;;
2022/12/06 01:37:51;;;;;;;3.6;2;;;;;;;1.26;97.91797;938.889;;;;
2022/12/06 01:40:29;;;;;;;4.1;3;;;;;;;1.21;98.32031;938.8979;;;;
2022/12/06 01:43:06;;;;;;;4.1;2.9;;;;;;;0.93;99.38086;938.7338;;;;
2022/12/06 01:45:46;;;;;;;2.6;2.4;;;;;;;0.84;100;938.7478;;;;
2022/12/06 01:48:33;;;;;;;3.4;2.7;;;;;;;0.76;100;938.7029;;;;
2022/12/06 01:51:17;;;;;;;4.2;3.3;;;;;;;0.76;100;938.7484;;;;
2022/12/06 01:53:57;;;;;;;3.2;2.6;;;;;;;0.91;100;938.7555;;;;
2022/12/06 01:56:35;;;;;;;2.8;2.5;;;;;;;0.93;100;938.7699;;;;
2022/12/06 01:59:15;;;;;;;2.5;2.2;;;;;;;0.99;99.7959;938.7458;;;;
2022/12/06 02:01:53;;;;;;;3.4;2.5;;;;;;;1.07;99.02441;938.7695;;;;
2022/12/06 02:04:31;;;;;;;3.8;2.8;;;;;;;1.14;98.35742;938.76;;;;
2022/12/06 02:07:10;;;;;;;6.2;3.8;;;;;;;0.98;98.85742;938.7292;;;;
2022/12/06 02:09:48;;;;;;;4.4;3.4;;;;;;;0.97;99.25781;938.6831;;;;
2022/12/06 02:12:26;;;;;;;4.7;3.4;;;;;;;1.04;98.81445;938.6983;;;;
2022/12/06 02:15:05;;;;;;;5;3.9;;;;;;;1.03;98.52441;938.6707;;;;
2022/12/06 02:17:49;;;;;;;4.9;3.8;;;;;;;1.02;98.0752;938.6859;;;;
2022/12/06 02:20:32;;;;;;;5.7;4.1;;;;;;;1;97.90137;938.6703;;;;
2022/12/06 02:23:16;;;;;;;4.7;3.6;;;;;;;0.93;98.29785;938.5731;;;;
2022/12/06 02:26:04;;;;;;;6.2;3.7;;;;;;;0.85;97.97949;938.6339;;;;
2022/12/06 02:28:46;;;;;;;4.8;3.3;;;;;;;0.83;98.21875;938.6116;;;;
2022/12/06 02:31:17;;;;;;;5.1;3.6;;;;;;;0.77;99.13281;938.7145;;;;
2022/12/06 02:33:57;;;;;;;5.4;3.2;;;;;;;0.78;99.48145;938.6998;;;;
2022/12/06 02:36:39;;;;;;;4;2.9;;;;;;;0.82;99.69238;938.6976;;;;
2022/12/06 02:39:21;;;;;;;3.9;3.2;;;;;;;0.93;99.21387;938.5834;;;;
2022/12/06 02:41:58;;;;;;;4;3.1;;;;;;;0.86;99.07617;938.6384;;;;
2022/12/06 02:44:38;;;;;;;3.5;2.6;;;;;;;0.82;98.4873;938.6192;;;;
2022/12/06 02:47:12;;;;;;;3.5;2.6;;;;;;;0.81;98.59473;938.5308;;;;
2022/12/06 02:49:43;;;;;;;3.2;2.9;;;;;;;0.86;98.83008;938.5129;;;;
2022/12/06 02:52:07;;;;;;;3.8;2.8;;;;;;;0.92;97.75977;938.361;;;;
2022/12/06 02:54:32;;;;;;;3.2;2.6;;;;;;;0.9;97.2002;938.4348;;;;
2022/12/06 02:56:57;;;;;;;3.1;2.5;;;;;;;0.94;96.69434;938.4364;;;;
2022/12/06 02:59:25;;;;;;;3.7;2.6;;;;;;;0.99;96.12402;938.3603;;;;
2022/12/06 03:02:00;;;;;;;3.2;2.3;;;;;;;0.96;96.03809;938.3784;;;;
2022/12/06 03:04:45;;;;;;;4.8;2.8;;;;;;;0.9;96.2373;938.3519;;;;
2022/12/06 03:07:01;;;;;;;3.6;3;;;;;;;0.71;97.44434;938.327;;;;
2022/12/06 03:09:26;;;;;;;4.1;2.9;;;;;;;0.74;97.75391;938.2594;;;;
2022/12/06 03:11:56;;;;;;;3.4;3.1;;;;;;;0.73;97.98438;938.2565;;;;
2022/12/06 03:14:23;;;;;;;3.3;2.5;;;;;;;0.69;97.77441;938.2546;;;;
2022/12/06 03:16:53;;;;;;;3.5;2.6;;;;;;;0.64;98.19922;938.1303;;;;
2022/12/06 03:19:22;;;;;;;3.1;2.6;;;;;;;0.62;98.34082;938.0784;;;;
2022/12/06 03:21:48;;;;;;;3.5;2.8;;;;;;;0.7;98.2793;938.1226;;;;
2022/12/06 03:24:17;;;;;;;3.8;2.6;;;;;;;0.64;98.14355;937.9492;;;;
2022/12/06 03:26:47;;;;;;;6;3.6;;;;;;;0.58;98.30566;938.0433;;;;
2022/12/06 03:29:17;;;;;;;7;4.6;;;;;;;0.48;98.46289;938.0129;;;;
2022/12/06 03:31:44;;;;;;;8.2;5.3;;;;;;;0.46;98.53418;938.0214;;;;
2022/12/06 03:34:13;;;;;;;9.4;5.1;;;;;;;0.47;98.40527;937.92;;;;
2022/12/06 03:36:41;;;;;;;17;8.6;;;;;;;0.52;97.87988;937.9827;;;;
2022/12/06 03:39:07;;;;;;;18.8;10.3;;;;;;;0.52;97.71289;937.8963;;;;
2022/12/06 03:41:32;;;;;;;8.6;5.1;;;;;;;0.48;97.53516;937.9055;;;;
2022/12/06 03:43:57;;;;;;;9.6;5.5;;;;;;;0.43;98.20508;937.9078;;;;
2022/12/06 03:46:28;;;;;;;6.3;3.8;;;;;;;0.48;97.76953;937.9039;;;;
2022/12/06 03:48:53;;;;;;;4.8;3.3;;;;;;;0.45;97.7627;937.8392;;;;
2022/12/06 03:51:18;;;;;;;5.3;3;;;;;;;0.54;97.27051;937.8431;;;;
2022/12/06 03:53:44;;;;;;;4.5;2.9;;;;;;;0.52;96.77637;937.8261;;;;
2022/12/06 03:56:09;;;;;;;5.2;3.1;;;;;;;0.35;97.09375;937.8234;;;;
2022/12/06 03:58:35;;;;;;;4.9;3;;;;;;;0.41;97.50781;937.8393;;;;
2022/12/06 04:02:39;;;;;;;2.5;2;;;;;;;0.36;97.3877;937.802;;;;
2022/12/06 04:05:11;;;;;;;3.2;1.9;;;;;;;0.5;96.80566;937.8061;;;;
2022/12/06 04:07:38;;;;;;;2.6;1.9;;;;;;;0.47;96.16309;937.7837;;;;
2022/12/06 04:10:13;;;;;;;2.5;2;;;;;;;0.51;95.81445;937.7858;;;;
2022/12/06 04:15:06;;;;;;;2.5;1.8;;;;;;;0.51;95.89258;937.7903;;;;
2022/12/06 04:20:05;;;;;;;2.2;1.7;;;;;;;0.6;94.3623;937.861;;;;
2022/12/06 04:24:56;;;;;;;2.9;2.5;;;;;;;0.64;94.19434;937.8709;;;;
2022/12/06 04:39:46;;;;;;;5.3;3.4;;;;;;;0.29;96.04395;937.9285;;;;
2022/12/06 04:44:42;;;;;;;5.8;3.7;;;;;;;0.29;95.4873;937.8995;;;;
2022/12/06 04:47:11;;;;;;;5.5;3.7;;;;;;;0.31;94.90039;937.8464;;;;
2022/12/06 04:49:36;;;;;;;4.9;3.7;;;;;;;0.36;94.27441;937.8901;;;;
2022/12/06 04:52:57;;;;;;;4.7;3.6;;;;;;;0.36;93.94043;937.9058;;;;
2022/12/06 04:55:26;;;;;;;5.5;3.2;;;;;;;0.32;94.46777;937.963;;;;
2022/12/06 04:57:52;;;;;;;5;3.4;;;;;;;0.32;94.28906;937.9869;;;;
2022/12/06 05:00:22;;;;;;;8;3.6;;;;;;;0.29;94.31641;937.9669;;;;
2022/12/06 05:02:56;;;;;;;5;3.3;;;;;;;0.21;94.32031;937.9052;;;;
2022/12/06 05:05:28;;;;;;;7.4;6.6;;;;;;;0.22;94.80176;937.9222;;;;
2022/12/06 05:07:59;;;;;;;5.5;4;;;;;;;0.21;94.63086;937.8808;;;;
2022/12/06 05:10:29;;;;;;;5;3.7;;;;;;;0.18;94.17871;937.9361;;;;
2022/12/06 05:12:55;;;;;;;4.9;3;;;;;;;0.12;94.50977;937.9235;;;;
2022/12/06 05:15:25;;;;;;;4.5;3.1;;;;;;;0.02;94.90039;937.9171;;;;
2022/12/06 05:17:50;;;;;;;3.5;2.8;;;;;;;0.02;95.30273;937.9016;;;;
2022/12/06 05:20:19;;;;;;;4.8;2.8;;;;;;;-0.03;95.24609;937.9793;;;;
2022/12/06 05:22:44;;;;;;;5.1;3.5;;;;;;;-0.15;95.76563;937.9972;;;;
2022/12/06 05:25:15;;;;;;;6;3.7;;;;;;;-0.1;95.9541;937.9713;;;;
2022/12/06 05:27:40;;;;;;;12;7.7;;;;;;;-0.09;95.83594;937.9256;;;;
2022/12/06 05:30:08;;;;;;;11;8.5;;;;;;;-0.03;95.60254;937.9495;;;;
2022/12/06 05:32:33;;;;;;;10.7;7.9;;;;;;;0;94.89648;937.9361;;;;
2022/12/06 05:35:01;;;;;;;14.4;9.6;;;;;;;0.01;94.06445;937.9283;;;;
2022/12/06 05:37:26;;;;;;;13;9.1;;;;;;;-0.12;94.0791;937.9529;;;;
2022/12/06 05:39:56;;;;;;;17.3;15;;;;;;;-0.31;95.12793;937.9796;;;;
2022/12/06 05:42:27;;;;;;;8.8;5.6;;;;;;;-0.26;95.39355;937.9489;;;;
2022/12/06 05:44:57;;;;;;;7.3;5.1;;;;;;;-0.18;94.90234;937.934;;;;
2022/12/06 05:47:22;;;;;;;7.6;5.3;;;;;;;-0.21;94.74023;937.9494;;;;
2022/12/06 05:49:52;;;;;;;8.1;4.6;;;;;;;-0.22;94.88281;937.9161;;;;
2022/12/06 05:52:22;;;;;;;7.2;4.6;;;;;;;-0.21;94.71777;937.9135;;;;
2022/12/06 05:54:51;;;;;;;8.3;7.1;;;;;;;-0.2;94.79785;937.8814;;;;
2022/12/06 05:57:16;;;;;;;9.3;8.3;;;;;;;-0.17;94.66992;937.9063;;;;
2022/12/06 05:59:44;;;;;;;7.7;6;;;;;;;-0.16;94.60547;937.8599;;;;
2022/12/06 06:02:09;;;;;;;11.6;7.6;;;;;;;-0.12;94.19043;937.9099;;;;
2022/12/06 06:04:36;;;;;;;16.7;11.6;;;;;;;-0.06;93.48926;937.8972;;;;
2022/12/06 06:07:01;;;;;;;15.8;11.2;;;;;;;-0.14;93.74121;937.9464;;;;
2022/12/06 06:09:28;;;;;;;13.6;8.8;;;;;;;-0.13;93.89844;937.9355;;;;
2022/12/06 06:11:53;;;;;;;12.5;8.3;;;;;;;-0.2;94.04102;937.8539;;;;
2022/12/06 06:14:22;;;;;;;9.5;6;;;;;;;-0.3;94.43066;937.8502;;;;
2022/12/06 06:16:52;;;;;;;8.4;5.9;;;;;;;-0.31;94.60449;937.8347;;;;
2022/12/06 06:19:22;;;;;;;9.7;6;;;;;;;-0.37;94.70117;937.8912;;;;
2022/12/06 06:21:47;;;;;;;8.7;6.2;;;;;;;-0.4;94.8291;937.8715;;;;
2022/12/06 06:24:11;;;;;;;7.7;5.7;;;;;;;-0.38;94.8125;937.8675;;;;
2022/12/06 06:26:39;;;;;;;9.5;5.5;;;;;;;-0.3;94.20605;937.8555;;;;
2022/12/06 06:29:04;;;;;;;10.3;5.5;;;;;;;-0.29;93.80664;937.8207;;;;
2022/12/06 06:31:32;;;;;;;7.4;5.2;;;;;;;-0.31;93.4375;937.8998;;;;
2022/12/06 06:34:01;;;;;;;6.1;4.6;;;;;;;-0.32;92.79883;937.8229;;;;
2022/12/06 06:36:26;;;;;;;7.8;4.8;;;;;;;-0.27;92.7334;937.9353;;;;
2022/12/06 06:38:58;;;;;;;6.8;4.7;;;;;;;-0.32;92.76563;937.9604;;;;
2022/12/06 06:41:30;;;;;;;5.5;3.9;;;;;;;-0.29;92.54883;937.9398;;;;
2022/12/06 06:44:00;;;;;;;19.1;10.1;;;;;;;-0.27;92.46582;937.8851;;;;
2022/12/06 06:46:25;;;;;;;6;4.5;;;;;;;-0.28;92.75098;937.8541;;;;
2022/12/06 06:48:55;;;;;;;6.3;4.7;;;;;;;-0.32;93.18848;937.8204;;;;
2022/12/06 06:51:25;;;;;;;18.3;9.8;;;;;;;-0.3;92.90332;938.0042;;;;
2022/12/06 06:53:50;;;;;;;17.5;10.9;;;;;;;-0.3;92.50293;937.9744;;;;
2022/12/06 06:56:15;;;;;;;13.2;8.1;;;;;;;-0.25;92.16895;937.9841;;;;
2022/12/06 06:58:40;;;;;;;11.4;6.3;;;;;;;-0.27;92.29883;938.0159;;;;
2022/12/06 07:01:09;;;;;;;6;4.8;;;;;;;-0.38;93.14355;937.9637;;;;
2022/12/06 07:03:43;;;;;;;8.8;5.5;;;;;;;-0.4;93.5293;938.0167;;;;
2022/12/06 07:06:14;;;;;;;7.6;5.8;;;;;;;-0.41;93.66992;938.0158;;;;
2022/12/06 07:08:43;;;;;;;9.4;8.2;;;;;;;-0.4;93.71582;937.9629;;;;
2022/12/06 07:11:08;;;;;;;7.5;6.2;;;;;;;-0.33;93.32031;937.9638;;;;
2022/12/06 07:13:38;;;;;;;6.4;4.5;;;;;;;-0.37;93.71289;937.9391;;;;
2022/12/06 07:16:16;;;;;;;5;3.3;;;;;;;-0.41;93.58008;937.9289;;;;
2022/12/06 07:18:47;;;;;;;4.4;4;;;;;;;-0.46;93.76855;937.9358;;;;
2022/12/06 07:21:15;;;;;;;9.6;6.5;;;;;;;-0.62;94.07715;937.9324;;;;
2022/12/06 07:23:40;;;;;;;6.8;5.6;;;;;;;-0.67;94.22461;937.9316;;;;
2022/12/06 07:26:15;;;;;;;6.6;4.8;;;;;;;-0.79;94.96387;937.8583;;;;
2022/12/06 07:28:44;;;;;;;6.3;4.3;;;;;;;-0.92;96.22461;937.9678;;;;
2022/12/06 07:31:13;;;;;;;8.2;6.2;;;;;;;-0.83;96.50098;938.0106;;;;
2022/12/06 07:33:39;;;;;;;7.3;5.5;;;;;;;-0.66;96.10645;937.9844;;;;
2022/12/06 07:36:11;;;;;;;12.3;6;;;;;;;-0.59;96.23242;938.002;;;;
2022/12/06 07:38:36;;;;;;;16.8;14.6;;;;;;;-0.43;95.7334;937.9458;;;;
2022/12/06 07:41:01;;;;;;;12.1;8.7;;;;;;;-0.56;94.87012;937.9269;;;;
2022/12/06 07:45:56;;;;;;;16.4;12.1;;;;;;;-0.62;95.70117;938.0355;;;;
2022/12/06 07:48:21;;;;;;;12.1;8.9;;;;;;;-0.59;95.72949;938.0418;;;;
2022/12/06 07:50:46;;;;;;;13;8.2;;;;;;;-0.52;96.01563;937.9931;;;;
2022/12/06 07:53:16;;;;;;;13.3;11.4;;;;;;;-0.35;95.83203;937.9832;;;;
2022/12/06 07:55:47;;;;;;;10.4;9.2;;;;;;;-0.15;94.46289;937.9916;;;;
2022/12/06 07:58:12;;;;;;;14.8;9.1;;;;;;;-0.02;95.36133;938.0073;;;;
2022/12/06 08:00:40;;;;;;;14.5;9.6;;;;;;;0.48;95.27344;937.9956;;;;
2022/12/06 08:03:02;;;;;;;11.1;7.5;;;;;;;1.18;92.83887;938.0522;;;;
2022/12/06 08:05:32;;;;;;;9.1;6.8;;;;;;;2.07;89.02734;938.0134;;;;
2022/12/06 08:08:01;;;;;;;9.5;6.5;;;;;;;2.8;81.72363;938.0075;;;;
2022/12/06 08:10:29;;;;;;;7.9;6.3;;;;;;;3.3;80.12402;938.0361;;;;
2022/12/06 08:12:54;;;;;;;9.3;6;;;;;;;3.9;76.71777;937.9917;;;;
2022/12/06 08:15:22;;;;;;;9.5;6.1;;;;;;;5.18;71.44629;938.0248;;;;
2022/12/06 08:17:51;;;;;;;10.7;6.2;;;;;;;5.16;68.03711;938.007;;;;
2022/12/06 08:20:19;;;;;;;10.9;6.6;;;;;;;5.84;66.21387;937.948;;;;
2022/12/06 08:22:55;;;;;;;9.2;6.3;;;;;;;5.85;64.91699;937.9737;;;;
2022/12/06 08:25:26;;;;;;;9.5;6.3;;;;;;;6.04;64.22363;937.9824;;;;
2022/12/06 08:27:54;;;;;;;10;6.7;;;;;;;5.17;65.74023;938.0256;;;;
2022/12/06 08:30:19;;;;;;;10.1;6.7;;;;;;;5.26;66.82422;938.0985;;;;
2022/12/06 08:32:50;;;;;;;8.6;6.1;;;;;;;4.93;67.86523;937.9722;;;;
2022/12/06 08:35:22;;;;;;;9.5;5.7;;;;;;;4.09;70.88086;938.0008;;;;
2022/12/06 08:37:47;;;;;;;9.8;6.1;;;;;;;2.88;75.7041;938.1169;;;;
2022/12/06 08:40:19;;;;;;;7.2;4.9;;;;;;;1.97;80.47852;938.0658;;;;
2022/12/06 08:42:48;;;;;;;5.8;4.6;;;;;;;1.58;83.15527;938.1588;;;;
2022/12/06 08:45:13;;;;;;;7.5;4.7;;;;;;;1.12;86.63867;938.1649;;;;
2022/12/06 08:47:44;;;;;;;7.3;4.8;;;;;;;1.13;87.43359;938.1443;;;;
2022/12/06 08:50:17;;;;;;;9.1;4.9;;;;;;;1.18;87.88965;938.0451;;;;
2022/12/06 08:52:45;;;;;;;7.8;4.8;;;;;;;1.15;88.66406;938.1252;;;;
2022/12/06 08:55:11;;;;;;;8.9;5.2;;;;;;;1.05;89.5293;938.1244;;;;
2022/12/06 08:57:39;;;;;;;6.7;4.7;;;;;;;0.88;90.6748;938.1397;;;;
2022/12/06 09:00:15;;;;;;;6.5;4.1;;;;;;;0.84;91.21191;938.1215;;;;
2022/12/06 09:02:39;;;;;;;6.9;4.3;;;;;;;0.99;91.25781;938.0555;;;;
2022/12/06 09:05:37;;;;;;;7.9;4.9;;;;;;;1.12;91.27246;938.0652;;;;
2022/12/06 09:08:02;;;;;;;10.3;6.3;;;;;;;0.89;91.30176;937.9865;;;;
2022/12/06 09:10:27;;;;;;;9.2;6.2;;;;;;;0.81;92.37793;938.0159;;;;
2022/12/06 09:12:55;;;;;;;6.2;4.2;;;;;;;0.9;92.47754;937.9981;;;;
2022/12/06 09:15:20;;;;;;;7.7;4.9;;;;;;;0.99;91.80371;937.8508;;;;
2022/12/06 09:17:47;;;;;;;7.5;4.1;;;;;;;1.05;90.56641;937.9486;;;;
2022/12/06 09:20:16;;;;;;;6.6;4;;;;;;;1.23;91.47656;937.9575;;;;
2022/12/06 09:22:37;;;;;;;6.4;4;;;;;;;1.31;90.44336;937.9713;;;;
2022/12/06 09:25:05;;;;;;;6.6;4.1;;;;;;;1.45;91.04297;937.9515;;;;
2022/12/06 09:27:30;;;;;;;6.9;4.4;;;;;;;1.63;90.67676;937.8997;;;;
2022/12/06 09:29:57;;;;;;;5.8;3.1;;;;;;;1.65;88.93848;937.903;;;;
2022/12/06 09:32:22;;;;;;;4.8;3.7;;;;;;;1.72;88.65137;937.9073;;;;
2022/12/06 09:34:50;;;;;;;4.8;3.6;;;;;;;1.65;87.78613;937.9344;;;;
2022/12/06 09:37:15;;;;;;;6.4;4;;;;;;;1.59;88.54688;937.875;;;;
2022/12/06 09:39:44;;;;;;;6.9;3.7;;;;;;;1.44;87.53125;937.8619;;;;
2022/12/06 09:42:09;;;;;;;6.2;3.8;;;;;;;1.47;87.79492;937.8992;;;;
2022/12/06 09:44:36;;;;;;;4.2;2.9;;;;;;;1.53;88.41016;937.8577;;;;
2022/12/06 09:47:04;;;;;;;5.6;4.2;;;;;;;1.65;88.3584;937.798;;;;
2022/12/06 09:49:30;;;;;;;7.8;5.1;;;;;;;1.86;88.54688;937.7079;;;;
2022/12/06 09:51:58;;;;;;;5.1;3.6;;;;;;;1.8;86.50781;937.7112;;;;
2022/12/06 09:54:23;;;;;;;6.5;4.2;;;;;;;1.93;86.09668;937.7113;;;;
2022/12/06 09:56:48;;;;;;;6.8;4.1;;;;;;;2.02;85.56836;937.6635;;;;
2022/12/06 09:59:13;;;;;;;5.8;3.6;;;;;;;2.2;86.12207;937.4913;;;;
2022/12/06 10:01:39;;;;;;;3.5;2;;;;;;;2.33;83.63867;937.5433;;;;
2022/12/06 10:04:04;;;;;;;3.8;2.6;;;;;;;2.72;84.18457;937.3967;;;;
2022/12/06 10:06:29;;;;;;;4.2;2.9;;;;;;;3.16;82.1416;937.4543;;;;
2022/12/06 10:09:00;;;;;;;4.3;2.9;;;;;;;3.26;80.25195;937.4266;;;;
2022/12/06 10:11:26;;;;;;;9.1;5.7;;;;;;;3.47;79.57227;937.3657;;;;
2022/12/06 10:13:51;;;;;;;5.3;3.9;;;;;;;3.87;78.08301;937.3803;;;;
2022/12/06 10:16:21;;;;;;;2.7;1.9;;;;;;;3.94;76.35352;937.3527;;;;
2022/12/06 10:18:47;;;;;;;2.6;2.2;;;;;;;3.91;76.64258;937.3219;;;;
2022/12/06 10:21:20;;;;;;;2.1;1.1;;;;;;;3.95;73.73633;937.2814;;;;
2022/12/06 10:23:45;;;;;;;1.5;1.3;;;;;;;3.8;72.52051;937.2208;;;;
2022/12/06 10:26:15;;;;;;;1.8;1.2;;;;;;;3.57;75.06348;937.1897;;;;
2022/12/06 10:28:41;;;;;;;2.4;1.8;;;;;;;3.65;75.79688;937.188;;;;
2022/12/06 10:31:06;;;;;;;1.7;1.4;;;;;;;3.54;75.4502;937.1035;;;;
2022/12/06 10:33:32;;;;;;;1.6;1.4;;;;;;;3.61;75.57617;937.0895;;;;
2022/12/06 10:35:57;;;;;;;2.3;1.3;;;;;;;3.91;75.62891;937.0272;;;;
2022/12/06 10:38:22;;;;;;;2.1;1.5;;;;;;;3.8;75.82422;937.0365;;;;
2022/12/06 10:40:50;;;;;;;1.8;1.5;;;;;;;3.96;77.96582;936.9715;;;;
2022/12/06 10:43:15;;;;;;;2.3;1.7;;;;;;;4.45;77.96484;936.918;;;;
2022/12/06 10:48:07;;;;;;;3.7;1.9;;;;;;;4.89;77.79785;936.9054;;;;
2022/12/06 10:50:32;;;;;;;2.6;1.9;;;;;;;4.93;77.25195;936.9467;;;;
2022/12/06 10:53:00;;;;;;;2.8;1.9;;;;;;;4.96;77.36035;936.8222;;;;
2022/12/06 10:55:30;;;;;;;3.3;1.7;;;;;;;5.25;75.94629;936.7303;;;;
2022/12/06 10:57:58;;;;;;;1.6;1.4;;;;;;;4.68;74.4375;936.7098;;;;
2022/12/06 11:00:25;;;;;;;2.3;1.5;;;;;;;4.77;75.34375;936.7683;;;;
2022/12/06 11:02:50;;;;;;;1.7;1.1;;;;;;;4.54;73.47754;936.7267;;;;
2022/12/06 11:05:16;;;;;;;2.6;1.1;;;;;;;4.43;72.8623;936.7511;;;;
2022/12/06 11:07:41;;;;;;;2.1;1.3;;;;;;;4.37;72.51367;936.7277;;;;
2022/12/06 11:10:06;;;;;;;4.4;1.5;;;;;;;4.13;73.94727;936.7036;;;;
2022/12/06 11:12:50;;;;;;;2.5;1.2;;;;;;;4.13;72.90137;936.5948;;;;
2022/12/06 11:15:16;;;;;;;2.7;1.2;;;;;;;4.17;74.05566;936.5811;;;;
2022/12/06 11:17:47;;;;;;;2.2;1.3;;;;;;;4.02;74.59082;936.5811;;;;
2022/12/06 11:20:17;;;;;;;3.2;1.6;;;;;;;4.2;72.5752;936.5189;;;;
2022/12/06 11:22:46;;;;;;;5.4;1.7;;;;;;;4.46;73.73535;936.4288;;;;
2022/12/06 11:25:13;;;;;;;3.9;1.8;;;;;;;4.68;78.46777;936.5055;;;;
2022/12/06 11:27:42;;;;;;;4.2;2;;;;;;;4.87;73.85059;936.5165;;;;
2022/12/06 11:30:09;;;;;;;3.8;2.1;;;;;;;5.07;73.73828;936.4891;;;;
2022/12/06 11:32:34;;;;;;;5;2.5;;;;;;;5.08;74.27051;936.4894;;;;
2022/12/06 11:35:04;;;;;;;8.6;3.1;;;;;;;5.11;74.42188;936.4776;;;;
2022/12/06 11:37:28;;;;;;;3.5;2.3;;;;;;;4.71;73.11328;936.3897;;;;
2022/12/06 11:40:01;;;;;;;4.1;2.9;;;;;;;4.65;75.02832;936.4724;;;;
2022/12/06 11:42:28;;;;;;;8;3.8;;;;;;;4.91;75.0625;936.4277;;;;
2022/12/06 11:44:53;;;;;;;6.7;2.7;;;;;;;4.7;72.54883;936.387;;;;
2022/12/06 11:47:18;;;;;;;6.7;2.8;;;;;;;4.13;73.66797;936.3917;;;;
2022/12/06 11:49:47;;;;;;;4.4;3;;;;;;;4.32;73.71094;936.3605;;;;
2022/12/06 11:52:12;;;;;;;5.4;2.6;;;;;;;4.41;73.26465;936.3359;;;;
2022/12/06 11:54:41;;;;;;;6.2;3.3;;;;;;;4.5;72.7959;936.2991;;;;
2022/12/06 11:57:12;;;;;;;4;2.2;;;;;;;4.51;71.48047;936.259;;;;
2022/12/06 11:59:37;;;;;;;9.1;3.2;;;;;;;4.55;72.56738;936.3416;;;;
2022/12/06 12:02:03;;;;;;;5.2;2.5;;;;;;;4.45;75.15039;936.2912;;;;
2022/12/06 12:04:28;;;;;;;2.6;1.9;;;;;;;4.54;72.52051;936.2063;;;;
2022/12/06 12:06:59;;;;;;;3.9;2.2;;;;;;;4.39;73.12695;936.2475;;;;
2022/12/06 12:09:24;;;;;;;5.3;2.3;;;;;;;4.48;74.49121;936.2637;;;;
2022/12/06 12:11:56;;;;;;;5.6;2;;;;;;;4.79;74.18457;936.1906;;;;
2022/12/06 12:14:23;;;;;;;11.4;3.7;;;;;;;5.12;74.10742;936.2088;;;;
2022/12/06 12:16:48;;;;;;;7.5;2.8;;;;;;;5.42;73.07715;936.1604;;;;
2022/12/06 12:19:18;;;;;;;4;2.5;;;;;;;5.73;72.49805;936.1255;;;;
2022/12/06 12:21:46;;;;;;;5.9;2.1;;;;;;;6.02;70.89746;936.0446;;;;
2022/12/06 12:24:11;;;;;;;2.6;1.5;;;;;;;5.73;68.63574;936.0291;;;;
2022/12/06 12:26:37;;;;;;;2.7;1.7;;;;;;;5.91;68.40527;935.9755;;;;
2022/12/06 12:29:02;;;;;;;4.6;1.8;;;;;;;6.3;68.42383;935.9009;;;;
2022/12/06 12:31:28;;;;;;;10.4;2.7;;;;;;;6.62;67.28516;935.954;;;;
2022/12/06 12:33:53;;;;;;;4.1;2.2;;;;;;;6.8;66.92969;935.8999;;;;
2022/12/06 12:36:22;;;;;;;3.7;1.6;;;;;;;6.79;67.13086;935.9423;;;;
2022/12/06 12:38:47;;;;;;;1.9;1.5;;;;;;;6.76;64.25195;935.9536;;;;
2022/12/06 12:41:12;;;;;;;3;1.2;;;;;;;6.86;61.55078;936.0082;;;;
2022/12/06 12:43:40;;;;;;;2.6;1.6;;;;;;;6.83;64.45605;935.9436;;;;
2022/12/06 12:46:05;;;;;;;3;1.4;;;;;;;6.87;64.68652;935.9641;;;;
2022/12/06 12:48:35;;;;;;;3.3;1.4;;;;;;;6.97;63.69434;935.9517;;;;
2022/12/06 12:51:02;;;;;;;2.5;1.2;;;;;;;6.96;64.53223;935.938;;;;
2022/12/06 12:53:27;;;;;;;9.7;2.2;;;;;;;6.71;62.69434;935.8911;;;;
2022/12/06 12:55:54;;;;;;;9;2.4;;;;;;;6.76;63.75391;935.9449;;;;
2022/12/06 12:58:19;;;;;;;5.7;2.3;;;;;;;6.62;64.34473;935.9494;;;;
2022/12/06 13:00:44;;;;;;;6.1;2.4;;;;;;;6.65;63.54395;935.976;;;;
2022/12/06 13:03:10;;;;;;;15.2;4;;;;;;;6.67;66.07129;935.9733;;;;
2022/12/06 13:05:35;;;;;;;10.8;3.1;;;;;;;6.72;66.02441;935.7845;;;;
2022/12/06 13:08:00;;;;;;;4.8;2.3;;;;;;;6.55;67.19531;935.825;;;;
2022/12/06 13:10:31;;;;;;;2.2;1.7;;;;;;;6.43;68.52344;935.8256;;;;
2022/12/06 13:12:58;;;;;;;4.1;1.8;;;;;;;6.61;68.04297;935.8304;;;;
2022/12/06 13:15:23;;;;;;;3.5;1.9;;;;;;;6.61;68.87988;935.8209;;;;
2022/12/06 13:17:48;;;;;;;1.9;1.3;;;;;;;6.23;68.0166;935.7975;;;;
2022/12/06 13:20:13;;;;;;;2.9;1.5;;;;;;;6.11;68.42578;935.8356;;;;
2022/12/06 13:22:44;;;;;;;3.7;2;;;;;;;6.16;68.91895;935.8019;;;;
2022/12/06 13:25:04;;;;;;;1.7;1.2;;;;;;;6.38;69.00098;935.8274;;;;
2022/12/06 13:27:31;;;;;;;4;2.1;;;;;;;6.6;65.95801;935.8164;;;;
2022/12/06 13:29:56;;;;;;;6.2;1.6;;;;;;;6.66;66.36426;935.8653;;;;
2022/12/06 13:32:25;;;;;;;2.7;1.5;;;;;;;6.64;66.24805;935.8027;;;;
2022/12/06 13:34:50;;;;;;;1.3;1.2;;;;;;;6.71;67.00586;935.8056;;;;
2022/12/06 13:37:20;;;;;;;2.5;1.7;;;;;;;6.42;65.94336;935.7938;;;;
2022/12/06 13:39:49;;;;;;;6.4;1.9;;;;;;;5.99;68.2041;935.7236;;;;
2022/12/06 13:42:20;;;;;;;4.4;2;;;;;;;5.75;69.42969;935.7396;;;;
2022/12/06 13:44:39;;;;;;;3.5;2;;;;;;;5.59;70.20605;935.8108;;;;
2022/12/06 13:47:06;;;;;;;3.9;1.9;;;;;;;5.72;71.0625;935.803;;;;
2022/12/06 13:49:32;;;;;;;3.3;2.3;;;;;;;5.84;70.13477;935.769;;;;
2022/12/06 13:51:57;;;;;;;5.2;2.5;;;;;;;5.95;69.5752;935.7914;;;;
2022/12/06 13:54:22;;;;;;;7.9;2.9;;;;;;;6.16;69.6084;935.7656;;;;
2022/12/06 13:56:47;;;;;;;6.5;2.4;;;;;;;6.18;68.2002;935.7653;;;;
2022/12/06 13:59:13;;;;;;;2.9;1.9;;;;;;;6.12;66.66602;935.7687;;;;
2022/12/06 14:01:43;;;;;;;5.1;2.4;;;;;;;6;67.69629;935.7142;;;;
2022/12/06 14:04:40;;;;;;;3.7;2.2;;;;;;;6.05;68.70996;935.7759;;;;
2022/12/06 14:07:03;;;;;;;4.3;2.4;;;;;;;6.14;69.18848;935.8173;;;;
2022/12/06 14:09:29;;;;;;;11.3;2.8;;;;;;;6.19;69.18457;935.7425;;;;
2022/12/06 14:11:59;;;;;;;4.1;2.1;;;;;;;6.01;68.04688;935.8094;;;;
2022/12/06 14:14:27;;;;;;;3.9;2;;;;;;;5.99;69.20898;935.7307;;;;
2022/12/06 14:16:52;;;;;;;3.5;2.1;;;;;;;5.92;69.47949;935.8422;;;;
2022/12/06 14:19:18;;;;;;;11;3.1;;;;;;;5.95;68.93066;935.8816;;;;
2022/12/06 14:21:44;;;;;;;4.7;2.5;;;;;;;6;69.1543;935.8645;;;;
2022/12/06 14:24:09;;;;;;;3.3;2;;;;;;;5.89;69.10156;935.8893;;;;
2022/12/06 14:26:39;;;;;;;4.3;2.1;;;;;;;5.87;69.52734;935.8636;;;;
2022/12/06 14:29:09;;;;;;;5.7;2.4;;;;;;;5.88;70.18457;935.8986;;;;
2022/12/06 14:31:40;;;;;;;8.5;2.2;;;;;;;5.85;69.18555;935.8995;;;;
2022/12/06 14:34:10;;;;;;;4.7;2.2;;;;;;;5.75;70.58105;935.8725;;;;
2022/12/06 14:36:35;;;;;;;6.7;2.3;;;;;;;5.67;71.04199;935.8389;;;;
2022/12/06 14:39:00;;;;;;;6.6;3;;;;;;;5.62;71.82422;935.8441;;;;
2022/12/06 14:43:50;;;;;;;5.9;3.9;;;;;;;5.56;74.7373;935.8533;;;;
2022/12/06 14:46:16;;;;;;;7.3;4.3;;;;;;;5.49;75.74023;935.8652;;;;
2022/12/06 14:51:09;;;;;;;8.9;5.2;;;;;;;5.47;76.8877;935.8166;;;;
2022/12/06 14:53:34;;;;;;;11.1;6.9;;;;;;;5.46;77.48633;935.8479;;;;
2022/12/06 14:55:59;;;;;;;10.5;6.5;;;;;;;5.29;77.58887;935.7755;;;;
2022/12/06 14:58:24;;;;;;;12.2;6.4;;;;;;;5.26;78.2041;935.796;;;;
2022/12/06 15:00:55;;;;;;;10;6.8;;;;;;;5.36;78.37988;935.7684;;;;
2022/12/06 15:03:21;;;;;;;40.4;34.2;;;;;;;5.31;78.30371;935.7374;;;;
2022/12/06 15:05:48;;;;;;;61.2;44.1;;;;;;;5.4;78.625;935.7522;;;;
2022/12/06 15:08:13;;;;;;;90.2;50.8;;;;;;;5.41;77.82617;935.759;;;;
2022/12/06 15:10:38;;;;;;;22.2;13.3;;;;;;;5.44;77.20996;935.762;;;;
2022/12/06 15:13:09;;;;;;;10.5;7.2;;;;;;;5.43;77.96289;935.7413;;;;
2022/12/06 15:15:39;;;;;;;8;5.6;;;;;;;5.38;78.45313;935.7406;;;;
2022/12/06 15:18:07;;;;;;;8.2;5;;;;;;;5.23;79.72168;935.7661;;;;
2022/12/06 15:20:33;;;;;;;8.8;5.9;;;;;;;5.16;80.02344;935.7539;;;;
2022/12/06 15:22:58;;;;;;;9.7;6;;;;;;;5.02;79.64844;935.7827;;;;